createdAt,value
2023-03-03T00:00:44.199Z,101552.25
2023-03-03T00:03:15.517Z,101561.06
2023-03-03T00:05:42.610Z,101542.66
2023-03-03T00:08:10.537Z,101549.34
2023-03-03T00:10:37.693Z,101552.06
2023-03-03T00:13:04.461Z,101553.59
2023-03-03T00:15:31.511Z,101547.53
2023-03-03T00:17:59.373Z,101547.75
2023-03-03T00:20:39.961Z,101550.00
2023-03-03T00:23:35.132Z,101552.59
2023-03-03T00:26:02.700Z,101557.16
2023-03-03T00:28:49.712Z,101555.50
2023-03-03T00:31:29.374Z,101560.78
2023-03-03T00:34:17.056Z,101561.38
2023-03-03T00:36:44.118Z,101577.22
2023-03-03T00:39:28.688Z,101581.34
2023-03-03T00:41:55.414Z,101582.31
2023-03-03T00:44:45.133Z,101575.75
2023-03-03T00:47:23.210Z,101580.56
2023-03-03T00:49:49.652Z,101588.00
2023-03-03T00:52:20.589Z,101586.28
2023-03-03T00:54:47.448Z,101585.19
2023-03-03T00:57:13.867Z,101582.47
2023-03-03T00:59:40.924Z,101584.44
2023-03-03T01:02:07.344Z,101577.06
2023-03-03T01:04:33.794Z,101577.22
2023-03-03T01:07:00.207Z,101574.69
2023-03-03T01:09:26.618Z,101578.81
2023-03-03T01:11:53.158Z,101570.88
2023-03-03T01:14:19.743Z,101564.38
2023-03-03T01:16:46.242Z,101560.63
2023-03-03T01:19:12.747Z,101565.22
2023-03-03T01:21:40.041Z,101565.06
2023-03-03T01:24:06.462Z,101571.41
2023-03-03T01:26:32.920Z,101573.88
2023-03-03T01:28:59.323Z,101567.09
2023-03-03T01:31:26.271Z,101569.25
2023-03-03T01:33:52.774Z,101558.91
2023-03-03T01:36:26.549Z,101561.16
2023-03-03T01:38:52.971Z,101563.63
2023-03-03T01:41:20.159Z,101570.34
2023-03-03T01:43:48.962Z,101548.88
2023-03-03T01:46:24.267Z,101555.53
2023-03-03T01:49:02.867Z,101546.44
2023-03-03T01:51:37.332Z,101555.84
2023-03-03T01:54:10.557Z,101564.16
2023-03-03T01:56:37.300Z,101575.69
2023-03-03T01:59:06.973Z,101564.59
2023-03-03T02:01:34.422Z,101566.78
2023-03-03T02:04:01.002Z,101569.28
2023-03-03T02:06:35.240Z,101575.03
2023-03-03T02:09:20.135Z,101565.06
2023-03-03T02:11:48.950Z,101561.19
2023-03-03T02:14:15.415Z,101545.38
2023-03-03T02:16:42.451Z,101533.84
2023-03-03T02:19:18.058Z,101549.47
2023-03-03T02:21:44.517Z,101561.66
2023-03-03T02:24:33.365Z,101545.47
2023-03-03T02:27:00.107Z,101541.84
2023-03-03T02:29:26.552Z,101535.06
2023-03-03T02:31:53.030Z,101544.56
2023-03-03T02:34:19.550Z,101530.38
2023-03-03T02:36:46.112Z,101533.91
2023-03-03T02:39:20.620Z,101524.47
2023-03-03T02:42:09.895Z,101523.16
2023-03-03T02:44:36.432Z,101537.81
2023-03-03T02:47:02.851Z,101537.09
2023-03-03T02:49:34.734Z,101542.88
2023-03-03T02:52:04.092Z,101528.59
2023-03-03T02:54:30.954Z,101531.69
2023-03-03T02:56:58.552Z,101524.72
2023-03-03T02:59:25.087Z,101523.44
2023-03-03T03:01:52.062Z,101516.31
2023-03-03T03:04:24.872Z,101520.78
2023-03-03T03:06:52.850Z,101523.38
2023-03-03T03:09:21.922Z,101524.75
2023-03-03T03:11:48.409Z,101524.13
2023-03-03T03:14:15.153Z,101529.56
2023-03-03T03:16:41.669Z,101522.06
2023-03-03T03:19:08.678Z,101525.22
2023-03-03T03:21:35.373Z,101543.66
2023-03-03T03:24:01.941Z,101532.03
2023-03-03T03:26:28.437Z,101530.22
2023-03-03T03:28:54.950Z,101536.25
2023-03-03T03:31:22.031Z,101534.44
2023-03-03T03:33:49.154Z,101531.09
2023-03-03T03:36:15.802Z,101536.25
2023-03-03T03:38:42.268Z,101526.50
2023-03-03T03:41:08.811Z,101530.13
2023-03-03T03:43:35.415Z,101524.19
2023-03-03T03:46:02.065Z,101528.03
2023-03-03T03:48:28.921Z,101540.13
2023-03-03T03:50:55.408Z,101536.94
2023-03-03T03:53:21.870Z,101538.34
2023-03-03T03:55:48.342Z,101534.34
2023-03-03T03:58:17.151Z,101536.81
2023-03-03T04:00:44.874Z,101541.00
2023-03-03T04:03:12.168Z,101544.13
2023-03-03T04:05:38.792Z,101554.28
2023-03-03T04:08:05.445Z,101554.97
2023-03-03T04:10:31.998Z,101555.41
2023-03-03T04:12:58.504Z,101552.94
2023-03-03T04:15:24.934Z,101560.22
2023-03-03T04:17:51.474Z,101554.66
2023-03-03T04:20:18.026Z,101549.16
2023-03-03T04:22:44.532Z,101555.00
2023-03-03T04:25:15.357Z,101551.66
2023-03-03T04:27:43.200Z,101549.72
2023-03-03T04:30:10.351Z,101566.34
2023-03-03T04:32:36.785Z,101546.13
2023-03-03T04:35:08.186Z,101556.16
2023-03-03T04:37:36.403Z,101569.38
2023-03-03T04:40:04.996Z,101569.91
2023-03-03T04:42:31.477Z,101564.22
2023-03-03T04:44:57.987Z,101559.44
2023-03-03T04:47:24.447Z,101571.94
2023-03-03T04:49:50.850Z,101566.97
2023-03-03T04:52:17.270Z,101564.28
2023-03-03T04:54:43.743Z,101561.22
2023-03-03T04:57:10.234Z,101568.44
2023-03-03T04:59:36.965Z,101578.78
2023-03-03T05:02:05.318Z,101592.34
2023-03-03T05:04:31.999Z,101588.91
2023-03-03T05:06:58.517Z,101575.91
2023-03-03T05:09:24.998Z,101560.56
2023-03-03T05:11:51.716Z,101570.34
2023-03-03T05:14:18.453Z,101560.03
2023-03-03T05:16:45.113Z,101556.91
2023-03-03T05:19:12.816Z,101557.75
2023-03-03T05:21:42.391Z,101556.66
2023-03-03T05:24:10.427Z,101553.25
2023-03-03T05:26:36.949Z,101551.38
2023-03-03T05:29:03.834Z,101548.63
2023-03-03T05:31:30.405Z,101546.50
2023-03-03T05:33:56.833Z,101538.75
2023-03-03T05:36:23.381Z,101530.56
2023-03-03T05:38:49.838Z,101534.81
2023-03-03T05:41:16.544Z,101521.56
2023-03-03T05:43:43.196Z,101530.16
2023-03-03T05:46:10.400Z,101532.22
2023-03-03T05:48:36.873Z,101536.25
2023-03-03T05:51:03.365Z,101533.53
2023-03-03T05:53:30.247Z,101536.59
2023-03-03T05:55:57.394Z,101549.34
2023-03-03T05:58:24.123Z,101555.91
2023-03-03T06:00:50.595Z,101551.56
2023-03-03T06:03:17.169Z,101564.69
2023-03-03T06:05:43.801Z,101566.06
2023-03-03T06:08:10.257Z,101566.06
2023-03-03T06:10:36.801Z,101563.75
2023-03-03T06:13:03.349Z,101572.66
2023-03-03T06:15:30.019Z,101572.34
2023-03-03T06:17:56.450Z,101580.34
2023-03-03T06:20:22.972Z,101589.19
2023-03-03T06:22:49.419Z,101585.31
2023-03-03T06:25:15.978Z,101588.78
2023-03-03T06:27:42.425Z,101599.00
2023-03-03T06:30:09.474Z,101590.00
2023-03-03T06:32:35.945Z,101593.03
2023-03-03T06:35:02.425Z,101595.50
2023-03-03T06:37:28.870Z,101599.19
2023-03-03T06:39:56.403Z,101598.34
2023-03-03T06:42:24.869Z,101595.41
2023-03-03T06:44:51.366Z,101597.34
2023-03-03T06:47:17.797Z,101599.63
2023-03-03T06:49:44.204Z,101592.69
2023-03-03T06:52:19.068Z,101604.22
2023-03-03T06:54:45.462Z,101597.44
2023-03-03T06:57:28.286Z,101593.03
2023-03-03T06:59:58.314Z,101607.81
2023-03-03T07:02:24.901Z,101610.56
2023-03-03T07:04:55.975Z,101609.78
2023-03-03T07:07:24.742Z,101610.81
2023-03-03T07:09:56.694Z,101609.56
2023-03-03T07:12:41.318Z,101609.75
2023-03-03T07:15:22.975Z,101617.78
2023-03-03T07:17:52.540Z,101623.63
2023-03-03T07:20:25.157Z,101608.97
2023-03-03T07:22:52.033Z,101628.59
2023-03-03T07:25:34.294Z,101623.03
2023-03-03T07:28:25.227Z,101629.19
2023-03-03T07:30:53.395Z,101635.81
2023-03-03T07:33:44.044Z,101630.38
2023-03-03T07:36:27.702Z,101631.63
2023-03-03T07:38:57.592Z,101623.38
2023-03-03T07:41:24.602Z,101640.59
2023-03-03T07:44:31.360Z,101641.81
2023-03-03T07:46:57.808Z,101645.19
2023-03-03T07:49:31.019Z,101656.75
2023-03-03T07:52:00.188Z,101649.19
2023-03-03T07:54:29.566Z,101648.09
2023-03-03T07:57:02.121Z,101648.13
2023-03-03T07:59:28.506Z,101654.69
2023-03-03T08:01:58.212Z,101648.66
2023-03-03T08:04:54.785Z,101661.78
2023-03-03T08:07:23.144Z,101662.53
2023-03-03T08:09:52.124Z,101663.78
2023-03-03T08:13:00.703Z,101654.06
2023-03-03T08:15:36.609Z,101663.19
2023-03-03T08:18:21.404Z,101662.34
2023-03-03T08:20:52.432Z,101657.44
2023-03-03T08:23:20.152Z,101659.88
2023-03-03T08:25:52.322Z,101660.44
2023-03-03T08:28:20.420Z,101653.81
2023-03-03T08:30:47.335Z,101652.25
2023-03-03T08:33:14.921Z,101662.31
2023-03-03T08:35:42.071Z,101663.94
2023-03-03T08:38:09.350Z,101664.25
2023-03-03T08:40:36.242Z,101665.56
2023-03-03T08:43:03.603Z,101660.78
2023-03-03T08:45:30.262Z,101676.94
2023-03-03T08:47:56.925Z,101668.06
2023-03-03T08:50:23.462Z,101667.31
2023-03-03T08:52:50.150Z,101664.75
2023-03-03T08:55:16.644Z,101673.16
2023-03-03T08:57:43.393Z,101664.69
2023-03-03T09:00:13.281Z,101668.91
2023-03-03T09:02:39.894Z,101680.84
2023-03-03T09:05:06.877Z,101671.91
2023-03-03T09:07:33.486Z,101668.44
2023-03-03T09:09:59.897Z,101662.41
2023-03-03T09:12:50.720Z,101675.34
2023-03-03T09:15:17.091Z,101663.66
2023-03-03T09:17:44.390Z,101666.22
2023-03-03T09:20:31.494Z,101682.41
2023-03-03T09:22:58.749Z,101662.63
2023-03-03T09:25:33.391Z,101662.25
2023-03-03T09:28:02.112Z,101668.09
2023-03-03T09:30:45.948Z,101663.00
2023-03-03T09:33:40.295Z,101658.13
2023-03-03T09:36:25.014Z,101658.31
2023-03-03T09:38:51.665Z,101656.59
2023-03-03T09:41:54.072Z,101664.00
2023-03-03T09:44:42.737Z,101668.53
2023-03-03T09:47:24.411Z,101673.38
2023-03-03T09:50:13.042Z,101680.34
2023-03-03T09:52:54.717Z,101678.63
2023-03-03T09:55:37.376Z,101673.31
2023-03-03T09:58:31.846Z,101678.38
2023-03-03T10:01:10.476Z,101674.47
2023-03-03T10:03:52.724Z,101671.31
2023-03-03T10:06:31.704Z,101683.00
2023-03-03T10:09:10.358Z,101676.97
2023-03-03T10:12:28.357Z,101676.56
2023-03-03T10:15:22.000Z,101676.97
2023-03-03T10:17:52.269Z,101683.09
2023-03-03T10:20:49.440Z,101677.09
2023-03-03T10:23:23.310Z,101674.53
2023-03-03T10:25:57.259Z,101675.63
2023-03-03T10:29:04.426Z,101680.44
2023-03-03T10:31:36.774Z,101689.75
2023-03-03T10:34:22.008Z,101684.91
2023-03-03T10:37:19.078Z,101679.75
2023-03-03T10:40:00.148Z,101670.38
2023-03-03T10:42:42.905Z,101674.84
2023-03-03T10:45:45.792Z,101673.09
2023-03-03T10:48:18.291Z,101678.59
2023-03-03T10:51:02.271Z,101668.63
2023-03-03T10:57:22.934Z,101671.25
2023-03-03T10:59:52.072Z,101667.53
2023-03-03T11:02:32.763Z,101671.19
2023-03-03T11:05:02.252Z,101668.88
2023-03-03T11:07:38.593Z,101670.22
2023-03-03T11:10:37.097Z,101678.69
2023-03-03T11:13:10.066Z,101660.72
2023-03-03T11:16:15.950Z,101663.06
2023-03-03T11:18:45.192Z,101663.63
2023-03-03T11:21:53.456Z,101662.22
2023-03-03T11:24:53.107Z,101662.09
2023-03-03T11:27:44.689Z,101664.47
2023-03-03T11:30:26.297Z,101665.13
2023-03-03T11:33:04.678Z,101655.22
2023-03-03T11:36:11.951Z,101649.28
2023-03-03T11:38:50.535Z,101648.56
2023-03-03T11:41:56.114Z,101640.63
2023-03-03T11:44:27.321Z,101645.53
2023-03-03T11:47:00.583Z,101642.19
2023-03-03T11:49:51.600Z,101635.06
2023-03-03T11:52:36.824Z,101640.38
2023-03-03T11:55:15.102Z,101636.41
2023-03-03T11:58:12.713Z,101635.78
2023-03-03T12:01:03.958Z,101632.25
2023-03-03T12:03:38.752Z,101623.84
2023-03-03T12:14:09.065Z,101619.97
2023-03-03T12:16:42.395Z,101610.31
2023-03-03T12:19:11.813Z,101624.31
2023-03-03T12:21:58.810Z,101616.16
2023-03-03T12:24:47.006Z,101608.84
2023-03-03T12:27:34.672Z,101609.75
2023-03-03T12:30:13.355Z,101604.06
2023-03-03T12:32:52.101Z,101609.78
2023-03-03T12:36:10.177Z,101612.34
2023-03-03T12:39:02.313Z,101605.00
2023-03-03T12:41:45.295Z,101591.22
2023-03-03T12:44:22.971Z,101602.94
2023-03-03T12:47:03.823Z,101603.06
2023-03-03T12:50:08.885Z,101587.38
2023-03-03T12:52:54.065Z,101597.03
2023-03-03T12:55:24.303Z,101597.25
2023-03-03T12:58:21.709Z,101589.72
2023-03-03T13:00:57.333Z,101593.44
2023-03-03T13:03:55.088Z,101587.84
2023-03-03T13:06:39.990Z,101589.13
2023-03-03T13:09:31.099Z,101591.22
2023-03-03T13:12:23.836Z,101586.00
2023-03-03T13:15:03.186Z,101584.75
2023-03-03T13:17:37.195Z,101571.56
2023-03-03T13:20:18.677Z,101569.88
2023-03-03T13:23:02.108Z,101570.53
2023-03-03T13:25:47.146Z,101568.81
2023-03-03T13:28:23.425Z,101567.47
2023-03-03T13:30:56.738Z,101566.06
2023-03-03T13:33:28.806Z,101567.50
2023-03-03T13:36:11.478Z,101562.34
2023-03-03T13:38:46.857Z,101555.44
2023-03-03T13:41:29.556Z,101551.50
2023-03-03T13:44:16.714Z,101549.56
2023-03-03T13:47:25.646Z,101541.22
2023-03-03T13:50:09.358Z,101544.63
2023-03-03T13:52:52.405Z,101539.53
2023-03-03T13:55:32.929Z,101524.06
2023-03-03T13:58:14.281Z,101528.28
2023-03-03T14:00:48.253Z,101520.78
2023-03-03T14:03:40.737Z,101527.38
2023-03-03T14:06:23.172Z,101519.22
2023-03-03T14:08:58.483Z,101511.63
2023-03-03T14:11:43.553Z,101514.31
2023-03-03T14:14:47.653Z,101508.75
2023-03-03T14:17:26.809Z,101502.94
2023-03-03T14:20:03.456Z,101517.16
2023-03-03T14:23:04.844Z,101514.94
2023-03-03T14:25:52.739Z,101513.91
2023-03-03T14:28:22.152Z,101517.47
2023-03-03T14:30:48.996Z,101515.69
2023-03-03T14:33:20.557Z,101516.09
2023-03-03T14:35:56.276Z,101513.91
2023-03-03T14:38:44.706Z,101512.63
2023-03-03T14:41:11.060Z,101507.69
2023-03-03T14:43:39.722Z,101511.94
2023-03-03T14:46:40.419Z,101513.31
2023-03-03T14:49:30.595Z,101506.34
2023-03-03T14:52:22.018Z,101517.47
2023-03-03T14:55:00.756Z,101507.84
2023-03-03T14:57:48.558Z,101503.44
2023-03-03T15:00:16.284Z,101498.59
2023-03-03T15:02:46.760Z,101496.78
2023-03-03T15:05:30.414Z,101503.09
2023-03-03T15:08:05.984Z,101496.78
2023-03-03T15:10:35.050Z,101491.94
2023-03-03T15:13:30.561Z,101493.47
2023-03-03T15:15:59.842Z,101494.94
2023-03-03T15:18:35.045Z,101495.88
2023-03-03T15:21:15.265Z,101488.66
2023-03-03T15:23:51.596Z,101485.59
2023-03-03T15:26:46.196Z,101487.81
2023-03-03T15:29:37.050Z,101484.22
2023-03-03T15:32:31.071Z,101485.13
2023-03-03T15:35:13.697Z,101487.00
2023-03-03T15:37:52.656Z,101474.84
2023-03-03T15:40:26.092Z,101467.78
2023-03-03T15:43:11.463Z,101468.72
2023-03-03T15:46:00.365Z,101465.56
2023-03-03T15:48:53.041Z,101457.00
2023-03-03T15:51:37.947Z,101466.19
2023-03-03T15:54:10.411Z,101459.28
2023-03-03T15:56:58.463Z,101454.06
2023-03-03T15:59:53.035Z,101460.22
2023-03-03T16:02:30.563Z,101464.69
2023-03-03T16:05:03.402Z,101456.53
2023-03-03T16:07:35.615Z,101455.09
2023-03-03T16:10:40.498Z,101465.22
2023-03-03T16:13:45.780Z,101464.56
2023-03-03T16:16:43.287Z,101467.59
2023-03-03T16:19:38.618Z,101463.13
2023-03-03T16:22:24.553Z,101465.38
2023-03-03T16:25:21.861Z,101465.06
2023-03-03T16:28:09.403Z,101459.56
2023-03-03T16:30:44.745Z,101473.78
2023-03-03T16:33:29.915Z,101470.50
2023-03-03T16:36:12.288Z,101470.06
2023-03-03T16:38:42.181Z,101475.94
2023-03-03T16:41:22.847Z,101475.88
2023-03-03T16:44:16.000Z,101473.09
2023-03-03T16:46:49.308Z,101475.75
2023-03-03T16:49:15.654Z,101475.94
2023-03-03T16:52:11.551Z,101466.09
2023-03-03T16:55:07.693Z,101472.19
2023-03-03T16:57:45.728Z,101469.19
2023-03-03T17:00:19.253Z,101468.22
2023-03-03T17:02:57.492Z,101465.28
2023-03-03T17:05:29.956Z,101466.56
2023-03-03T17:08:14.595Z,101464.44
2023-03-03T17:11:11.499Z,101465.28
2023-03-03T17:13:52.957Z,101463.03
2023-03-03T17:16:19.322Z,101468.31
2023-03-03T17:19:04.409Z,101469.97
2023-03-03T17:21:57.698Z,101475.06
2023-03-03T17:24:33.222Z,101472.72
2023-03-03T17:27:11.766Z,101476.81
2023-03-03T17:29:47.212Z,101477.25
2023-03-03T17:32:33.039Z,101482.72
2023-03-03T17:35:33.704Z,101475.84
2023-03-03T17:38:12.214Z,101475.13
2023-03-03T17:40:45.958Z,101475.44
2023-03-03T17:43:21.668Z,101479.38
2023-03-03T17:45:51.914Z,101474.41
2023-03-03T17:48:44.062Z,101481.25
2023-03-03T17:51:22.890Z,101470.19
2023-03-03T17:54:07.636Z,101479.25
2023-03-03T17:57:35.278Z,101474.28
2023-03-03T18:00:19.209Z,101470.16
2023-03-03T18:03:18.347Z,101468.53
2023-03-03T18:05:53.730Z,101468.84
2023-03-03T18:08:50.969Z,101468.75
2023-03-03T18:11:34.136Z,101471.44
2023-03-03T18:14:12.700Z,101470.59
2023-03-03T18:16:51.216Z,101464.75
2023-03-03T18:19:26.819Z,101468.75
2023-03-03T18:22:07.430Z,101471.78
2023-03-03T18:24:38.539Z,101467.41
2023-03-03T18:27:23.694Z,101465.28
2023-03-03T18:30:20.457Z,101465.00
2023-03-03T18:32:49.925Z,101467.03
2023-03-03T18:35:38.358Z,101464.34
2023-03-03T18:38:16.786Z,101458.69
2023-03-03T18:41:05.057Z,101457.19
2023-03-03T18:43:43.643Z,101470.72
2023-03-03T18:46:25.227Z,101460.69
2023-03-03T18:49:09.951Z,101462.94
2023-03-03T18:51:39.175Z,101464.78
2023-03-03T18:54:19.919Z,101461.28
2023-03-03T18:56:49.843Z,101468.19
2023-03-03T18:59:31.602Z,101473.91
2023-03-03T19:02:20.274Z,101470.59
2023-03-03T19:04:55.664Z,101467.59
2023-03-03T19:07:39.002Z,101464.66
2023-03-03T19:10:21.375Z,101472.31
2023-03-03T19:12:55.553Z,101467.59
2023-03-03T19:15:31.210Z,101467.53
2023-03-03T19:18:04.838Z,101465.56
2023-03-03T19:20:43.450Z,101464.47
2023-03-03T19:23:16.134Z,101470.03
2023-03-03T19:25:42.968Z,101464.75
2023-03-03T19:28:12.323Z,101463.09
2023-03-03T19:30:44.895Z,101466.13
2023-03-03T19:33:52.031Z,101461.03
2023-03-03T19:36:38.109Z,101463.75
2023-03-03T19:39:07.480Z,101464.53
2023-03-03T19:41:40.069Z,101467.22
2023-03-03T19:44:28.173Z,101461.31
2023-03-03T19:47:06.120Z,101459.22
2023-03-03T19:49:54.224Z,101459.44
2023-03-03T19:52:42.196Z,101461.09
2023-03-03T19:55:20.711Z,101456.41
2023-03-03T19:57:54.059Z,101459.75
2023-03-03T20:00:34.533Z,101462.94
2023-03-03T20:03:28.748Z,101463.81
2023-03-03T20:06:19.422Z,101456.06
2023-03-03T20:09:13.812Z,101448.28
2023-03-03T20:11:48.130Z,101451.03
2023-03-03T20:14:35.737Z,101449.06
2023-03-03T20:17:12.225Z,101447.69
2023-03-03T20:19:56.084Z,101449.22
2023-03-03T20:23:03.157Z,101447.81
2023-03-03T20:25:42.313Z,101446.81
2023-03-03T20:28:21.533Z,101447.38
2023-03-03T20:30:56.424Z,101444.44
2023-03-03T20:33:53.461Z,101441.19
2023-03-03T20:36:35.771Z,101444.34
2023-03-03T20:39:28.370Z,101443.31
2023-03-03T20:41:58.771Z,101443.31
2023-03-03T20:44:49.677Z,101447.72
2023-03-03T20:47:25.202Z,101442.19
2023-03-03T20:49:55.230Z,101443.44
2023-03-03T20:52:33.834Z,101440.19
2023-03-03T20:55:10.685Z,101442.97
2023-03-03T20:57:57.814Z,101439.84
2023-03-03T21:00:31.459Z,101441.34
2023-03-03T21:03:09.874Z,101432.47
2023-03-03T21:05:55.388Z,101438.56
2023-03-03T21:08:40.399Z,101439.63
2023-03-03T21:11:08.014Z,101431.97
2023-03-03T21:13:40.307Z,101434.06
2023-03-03T21:16:27.018Z,101433.97
2023-03-03T21:19:01.108Z,101435.19
2023-03-03T21:21:30.246Z,101440.38
2023-03-03T21:23:59.001Z,101421.56
2023-03-03T21:26:50.429Z,101426.75
2023-03-03T21:29:27.572Z,101426.63
2023-03-03T21:31:56.633Z,101420.47
2023-03-03T21:34:28.943Z,101423.81
2023-03-03T21:36:57.075Z,101426.78
2023-03-03T21:39:29.312Z,101419.59
2023-03-03T21:42:01.720Z,101412.56
2023-03-03T21:44:40.449Z,101415.53
2023-03-03T21:47:09.532Z,101404.38
2023-03-03T21:49:39.847Z,101405.88
2023-03-03T21:52:06.252Z,101406.56
2023-03-03T21:54:32.674Z,101403.06
2023-03-03T21:56:59.090Z,101395.81
2023-03-03T21:59:25.570Z,101402.81
2023-03-03T22:01:52.049Z,101408.47
2023-03-03T22:04:19.600Z,101404.09
2023-03-03T22:06:46.065Z,101407.91
2023-03-03T22:09:12.692Z,101392.41
2023-03-03T22:11:39.641Z,101399.78
2023-03-03T22:14:07.188Z,101399.16
2023-03-03T22:16:34.190Z,101395.66
2023-03-03T22:19:02.746Z,101391.94
2023-03-03T22:21:30.183Z,101383.69
2023-03-03T22:23:56.755Z,101383.63
2023-03-03T22:26:23.248Z,101383.50
2023-03-03T22:28:50.114Z,101386.91
2023-03-03T22:31:17.808Z,101375.66
2023-03-03T22:33:44.528Z,101378.31
2023-03-03T22:36:11.124Z,101372.75
2023-03-03T22:38:39.828Z,101361.84
2023-03-03T22:41:06.891Z,101367.19
2023-03-03T22:43:33.576Z,101363.78
2023-03-03T22:46:00.370Z,101350.75
2023-03-03T22:48:30.459Z,101350.31
2023-03-03T22:50:57.621Z,101350.06
2023-03-03T22:53:24.874Z,101352.59
2023-03-03T22:55:51.632Z,101340.09
2023-03-03T22:58:25.292Z,101344.50
2023-03-03T23:00:53.849Z,101351.94
2023-03-03T23:03:20.986Z,101348.94
2023-03-03T23:05:50.276Z,101351.72
2023-03-03T23:08:20.156Z,101354.16
2023-03-03T23:10:47.510Z,101341.47
2023-03-03T23:13:14.014Z,101358.28
2023-03-03T23:15:40.581Z,101356.56
2023-03-03T23:18:07.153Z,101347.16
2023-03-03T23:20:34.215Z,101345.69
2023-03-03T23:23:00.669Z,101337.69
2023-03-03T23:25:28.814Z,101340.16
2023-03-03T23:27:55.892Z,101350.66
2023-03-03T23:30:23.017Z,101344.59
2023-03-03T23:32:50.228Z,101349.81
2023-03-03T23:35:16.921Z,101352.56
2023-03-03T23:37:43.487Z,101343.50
2023-03-03T23:40:11.451Z,101340.56
2023-03-03T23:42:37.970Z,101342.88
2023-03-03T23:45:04.941Z,101338.88
2023-03-03T23:47:31.422Z,101343.16
2023-03-03T23:49:57.906Z,101341.75
2023-03-03T23:52:24.376Z,101334.38
2023-03-03T23:54:51.412Z,101345.19
2023-03-03T23:57:17.823Z,101347.13
2023-03-03T23:59:44.279Z,101356.91
